Time;durP1;ratioP1;P1;durP2;ratioP2;P2;SDS_P1;SDS_P2;PMS_P1;PMS_P2;Temp;Humidity;BMP_temperature;BMP_pressure;BME280_temperature;BME280_humidity;BME280_pressure;Samples;Min_cycle;Max_cycle;Signal;HPM_P1;HPM_P2
2023/10/28 00:00:45;;;;;;;4.80;1.92;;;11.70;99.90;;;;;;4970666;28;20080;-43
2023/10/28 00:03:11;;;;;;;5.72;1.77;;;11.80;99.90;;;;;;4970105;28;20405;-46
2023/10/28 00:05:36;;;;;;;2.70;1.50;;;11.70;99.90;;;;;;4969770;28;20106;-44
2023/10/28 00:08:03;;;;;;;5.80;2.42;;;11.80;99.90;;;;;;4969007;28;20106;-45
2023/10/28 00:10:30;;;;;;;4.47;1.52;;;11.80;99.90;;;;;;4969664;28;20031;-45
2023/10/28 00:12:55;;;;;;;3.28;1.58;;;11.80;99.90;;;;;;4970541;28;20031;-42
2023/10/28 00:15:21;;;;;;;4.63;1.42;;;11.80;99.90;;;;;;4970838;28;20053;-48
2023/10/28 00:17:47;;;;;;;1.38;1.27;;;11.70;99.90;;;;;;4969050;28;20114;-46
2023/10/28 00:20:17;;;;;;;5.40;1.90;;;11.70;99.90;;;;;;4970328;28;20030;-47
2023/10/28 00:22:53;;;;;;;2.92;1.20;;;11.70;99.90;;;;;;4970164;28;20094;-56
2023/10/28 00:25:22;;;;;;;14.38;8.90;;;11.70;99.90;;;;;;4970150;28;20027;-48
2023/10/28 00:27:47;;;;;;;15.38;7.40;;;11.70;99.90;;;;;;4969841;28;20058;-46
2023/10/28 00:30:14;;;;;;;3.40;2.08;;;11.70;99.90;;;;;;4968835;28;20051;-49
2023/10/28 00:32:41;;;;;;;6.95;1.42;;;11.70;99.90;;;;;;4970523;28;20025;-48
2023/10/28 00:35:11;;;;;;;1.25;1.10;;;11.70;99.90;;;;;;4970353;28;20027;-47
2023/10/28 00:37:37;;;;;;;4.72;1.20;;;11.70;99.90;;;;;;4970069;28;20440;-48
2023/10/28 00:40:05;;;;;;;1.42;1.10;;;11.60;99.90;;;;;;4969442;28;20027;-45
2023/10/28 00:42:35;;;;;;;2.67;1.48;;;11.70;99.90;;;;;;4969811;28;20101;-47
2023/10/28 00:45:04;;;;;;;6.10;1.65;;;11.70;99.90;;;;;;4968527;28;20440;-47
2023/10/28 00:47:31;;;;;;;1.67;1.13;;;11.60;99.90;;;;;;4969806;28;20030;-50
2023/10/28 00:49:58;;;;;;;3.70;1.45;;;11.60;99.90;;;;;;4969617;28;20122;-46
2023/10/28 00:52:23;;;;;;;2.25;1.60;;;11.60;99.90;;;;;;4969637;28;20034;-49
2023/10/28 00:54:51;;;;;;;5.45;1.60;;;11.50;99.90;;;;;;4969633;28;20477;-46
2023/10/28 00:57:17;;;;;;;8.85;1.98;;;11.60;99.90;;;;;;4969785;28;20019;-46
2023/10/28 00:59:43;;;;;;;4.97;2.63;;;11.60;99.90;;;;;;4969465;28;20022;-46
2023/10/28 01:02:12;;;;;;;3.55;1.48;;;11.60;99.90;;;;;;4968385;28;20053;-48
2023/10/28 01:04:39;;;;;;;1.67;1.58;;;11.60;99.90;;;;;;4969616;28;20107;-47
2023/10/28 01:07:04;;;;;;;5.65;2.00;;;11.60;99.90;;;;;;4969419;28;20529;-46
2023/10/28 01:09:30;;;;;;;3.75;1.70;;;11.60;99.90;;;;;;4969347;28;20105;-46
2023/10/28 01:11:56;;;;;;;4.25;1.48;;;11.60;99.90;;;;;;4968294;28;20141;-48
2023/10/28 01:14:21;;;;;;;2.63;1.65;;;11.60;99.90;;;;;;4969919;28;20030;-46
2023/10/28 01:16:49;;;;;;;4.72;1.38;;;11.60;99.90;;;;;;4969348;28;20034;-47
2023/10/28 01:19:15;;;;;;;1.60;1.23;;;11.70;99.90;;;;;;4969189;28;20034;-48
2023/10/28 01:21:41;;;;;;;1.92;1.00;;;11.70;99.90;;;;;;4971213;28;20022;-48
2023/10/28 01:24:07;;;;;;;4.95;1.70;;;11.70;99.90;;;;;;4972735;28;20092;-49
2023/10/28 01:26:33;;;;;;;3.67;2.15;;;11.70;99.90;;;;;;4972726;28;20023;-47
2023/10/28 01:29:00;;;;;;;5.90;2.13;;;11.80;99.90;;;;;;4972505;28;20070;-52
2023/10/28 01:31:26;;;;;;;3.42;1.70;;;11.80;99.90;;;;;;4972551;28;20015;-45
2023/10/28 01:33:52;;;;;;;2.20;1.40;;;11.80;99.90;;;;;;4972744;28;20065;-46
2023/10/28 01:36:17;;;;;;;5.20;1.90;;;11.80;99.90;;;;;;4972705;28;20031;-47
2023/10/28 01:38:44;;;;;;;3.08;1.38;;;11.80;99.90;;;;;;4972497;28;20088;-46
2023/10/28 01:41:12;;;;;;;1.60;1.30;;;11.80;99.90;;;;;;4972392;28;20461;-46
2023/10/28 01:43:40;;;;;;;4.15;1.70;;;11.70;99.90;;;;;;4972468;28;20027;-46
2023/10/28 01:46:05;;;;;;;2.45;1.13;;;11.70;99.90;;;;;;4972393;28;20026;-47
2023/10/28 01:48:31;;;;;;;2.58;1.20;;;11.70;99.90;;;;;;4971859;28;20494;-47
2023/10/28 01:50:56;;;;;;;2.63;1.48;;;11.70;99.90;;;;;;4972513;28;20034;-46
2023/10/28 01:53:24;;;;;;;0.70;0.70;;;11.70;99.90;;;;;;4972402;28;20505;-47
2023/10/28 01:55:50;;;;;;;5.38;1.17;;;11.70;99.90;;;;;;4972315;28;20026;-45
2023/10/28 01:58:16;;;;;;;0.60;0.60;;;11.80;99.90;;;;;;4972079;28;20031;-51
2023/10/28 02:00:41;;;;;;;0.52;0.50;;;11.80;99.90;;;;;;4972266;28;20401;-47
2023/10/28 02:03:08;;;;;;;1.98;0.73;;;11.80;99.90;;;;;;4972232;28;20027;-48
2023/10/28 02:05:34;;;;;;;0.75;0.63;;;11.80;99.90;;;;;;4972131;28;20153;-46
2023/10/28 02:07:59;;;;;;;2.03;0.70;;;11.90;99.90;;;;;;4971613;28;20075;-46
2023/10/28 02:10:25;;;;;;;0.80;0.77;;;11.90;99.90;;;;;;4971998;28;20027;-46
2023/10/28 02:12:51;;;;;;;0.70;0.70;;;11.80;99.90;;;;;;4972399;28;20058;-49
2023/10/28 02:15:16;;;;;;;0.60;0.50;;;11.90;99.90;;;;;;4970755;28;20428;-47
2023/10/28 02:17:42;;;;;;;0.63;0.60;;;11.80;99.90;;;;;;4971993;28;20027;-50
2023/10/28 02:20:10;;;;;;;1.95;0.60;;;11.80;99.90;;;;;;4971882;28;20053;-48
2023/10/28 02:22:36;;;;;;;3.80;0.60;;;11.80;99.90;;;;;;4971413;28;20113;-47
2023/10/28 02:25:03;;;;;;;0.57;0.40;;;11.90;99.90;;;;;;4971754;28;20031;-50
2023/10/28 02:27:29;;;;;;;0.50;0.50;;;11.80;99.90;;;;;;4971704;28;20027;-46
2023/10/28 02:29:54;;;;;;;0.30;0.30;;;11.80;99.90;;;;;;4971567;28;20026;-48
2023/10/28 02:32:20;;;;;;;2.17;1.20;;;11.80;99.90;;;;;;4971644;28;20057;-49
2023/10/28 02:34:45;;;;;;;2.70;0.45;;;11.70;99.90;;;;;;4971610;28;20064;-47
2023/10/28 02:37:11;;;;;;;0.52;0.50;;;11.70;99.90;;;;;;4971658;28;20081;-49
2023/10/28 02:39:37;;;;;;;0.50;0.50;;;11.70;99.90;;;;;;4971512;28;20027;-45
2023/10/28 02:42:03;;;;;;;2.95;0.50;;;11.60;99.90;;;;;;4971526;28;20050;-46
2023/10/28 02:44:32;;;;;;;0.50;0.50;;;11.60;99.90;;;;;;4971547;28;20490;-47
2023/10/28 02:46:58;;;;;;;0.73;0.70;;;11.60;99.90;;;;;;4971545;28;20027;-48
2023/10/28 02:49:23;;;;;;;1.75;0.47;;;11.50;99.90;;;;;;4971333;28;20150;-48
2023/10/28 02:51:49;;;;;;;0.80;0.50;;;11.50;99.90;;;;;;4971428;28;20026;-46
2023/10/28 02:54:14;;;;;;;0.52;0.32;;;11.50;99.90;;;;;;4971433;28;20062;-47
2023/10/28 02:56:40;;;;;;;0.50;0.50;;;11.50;99.90;;;;;;4971237;28;20046;-46
2023/10/28 02:59:06;;;;;;;0.70;0.70;;;11.50;99.90;;;;;;4971378;28;20027;-48
2023/10/28 03:01:36;;;;;;;1.38;0.60;;;11.50;99.90;;;;;;4971348;28;20035;-46
2023/10/28 03:04:02;;;;;;;0.40;0.32;;;11.50;99.90;;;;;;4971577;28;20030;-46
2023/10/28 03:06:28;;;;;;;1.33;0.70;;;11.50;99.90;;;;;;4971248;28;20529;-46
2023/10/28 03:08:54;;;;;;;1.33;0.70;;;11.60;99.90;;;;;;4971379;28;20117;-47
2023/10/28 03:11:20;;;;;;;2.88;0.70;;;11.50;99.90;;;;;;4971506;28;20027;-47
2023/10/28 03:13:46;;;;;;;4.55;0.80;;;11.50;99.90;;;;;;4971544;28;20035;-47
2023/10/28 03:16:11;;;;;;;0.60;0.60;;;11.60;99.90;;;;;;4971388;28;20030;-45
2023/10/28 03:18:37;;;;;;;2.10;1.02;;;11.50;99.90;;;;;;4970181;28;20397;-46
2023/10/28 03:21:04;;;;;;;1.23;0.77;;;11.50;99.90;;;;;;4971755;28;20088;-50
2023/10/28 03:23:29;;;;;;;4.80;0.80;;;11.60;99.90;;;;;;4971633;28;20041;-47
2023/10/28 03:25:55;;;;;;;1.58;0.90;;;11.50;99.90;;;;;;4971231;28;20031;-50
2023/10/28 03:28:21;;;;;;;3.60;1.00;;;11.60;99.90;;;;;;4971097;28;20054;-50
2023/10/28 03:30:46;;;;;;;1.88;1.00;;;11.60;99.90;;;;;;4970789;28;20035;-46
2023/10/28 03:33:12;;;;;;;5.00;1.00;;;11.60;99.90;;;;;;4970939;28;20102;-46
2023/10/28 03:35:37;;;;;;;0.90;0.70;;;11.50;99.90;;;;;;4971160;28;20486;-50
2023/10/28 03:38:03;;;;;;;1.52;1.13;;;11.50;99.90;;;;;;4970977;28;20098;-50
2023/10/28 03:40:28;;;;;;;5.03;0.82;;;11.50;99.90;;;;;;4971106;28;20043;-47
2023/10/28 03:42:54;;;;;;;3.10;1.45;;;11.60;99.90;;;;;;4971082;28;20462;-48
2023/10/28 03:45:20;;;;;;;3.35;0.88;;;11.60;99.90;;;;;;4969637;28;20512;-50
2023/10/28 03:47:45;;;;;;;7.65;1.30;;;11.50;99.90;;;;;;4970635;28;20110;-47
2023/10/28 03:50:11;;;;;;;2.38;0.90;;;11.60;99.90;;;;;;4970813;28;20102;-48
2023/10/28 03:52:36;;;;;;;2.20;1.17;;;11.60;99.90;;;;;;4970980;28;20026;-45
2023/10/28 03:55:03;;;;;;;2.92;0.90;;;11.60;99.90;;;;;;4970967;28;20509;-47
2023/10/28 03:57:28;;;;;;;2.55;0.90;;;11.60;99.90;;;;;;4970868;28;20026;-49
2023/10/28 03:59:54;;;;;;;4.47;0.77;;;11.60;99.90;;;;;;4970468;28;20024;-51
2023/10/28 04:02:20;;;;;;;5.03;0.90;;;11.60;99.90;;;;;;4970807;28;20050;-49
2023/10/28 04:04:45;;;;;;;2.95;0.80;;;11.60;99.90;;;;;;4970594;28;20031;-45
2023/10/28 04:07:11;;;;;;;2.80;0.90;;;11.60;99.90;;;;;;4970078;28;20031;-47
2023/10/28 04:09:37;;;;;;;4.80;1.67;;;11.60;99.90;;;;;;4970404;28;20406;-46
2023/10/28 04:12:06;;;;;;;1.63;1.00;;;11.60;99.90;;;;;;4970627;28;20027;-47
2023/10/28 04:14:33;;;;;;;3.28;2.30;;;11.60;99.90;;;;;;4970419;28;20027;-47
2023/10/28 04:16:58;;;;;;;3.35;0.80;;;11.60;99.90;;;;;;4970541;28;20023;-45
2023/10/28 04:19:24;;;;;;;1.45;0.90;;;11.60;99.90;;;;;;4970418;28;20030;-45
2023/10/28 04:21:49;;;;;;;2.30;0.98;;;11.60;99.90;;;;;;4970350;28;20456;-46
2023/10/28 04:24:15;;;;;;;1.08;0.70;;;11.60;99.90;;;;;;4970367;28;20077;-49
2023/10/28 04:26:40;;;;;;;6.28;1.05;;;11.60;99.90;;;;;;4969303;28;20038;-49
2023/10/28 04:29:06;;;;;;;3.92;1.13;;;11.50;99.90;;;;;;4970185;28;20076;-47
2023/10/28 04:31:31;;;;;;;1.90;0.90;;;11.50;99.90;;;;;;4970220;28;20019;-46
2023/10/28 04:33:57;;;;;;;5.18;1.10;;;11.60;99.90;;;;;;4970817;28;20081;-48
2023/10/28 04:36:22;;;;;;;3.88;0.77;;;11.60;99.90;;;;;;4970520;28;20023;-47
2023/10/28 04:38:48;;;;;;;4.63;0.95;;;11.60;99.90;;;;;;4970298;28;20031;-49
2023/10/28 04:41:13;;;;;;;3.85;1.20;;;11.60;99.90;;;;;;4970194;28;20091;-52
2023/10/28 04:43:39;;;;;;;1.38;1.13;;;11.60;99.90;;;;;;4969183;28;20443;-46
2023/10/28 04:46:05;;;;;;;5.20;1.20;;;11.60;99.90;;;;;;4970353;28;20027;-47
2023/10/28 04:48:32;;;;;;;2.28;1.35;;;11.60;99.90;;;;;;4969941;28;20027;-48
2023/10/28 04:50:58;;;;;;;3.55;1.30;;;11.50;99.90;;;;;;4970294;28;20023;-46
2023/10/28 04:53:23;;;;;;;3.17;1.50;;;11.50;99.90;;;;;;4970078;28;20031;-48
2023/10/28 04:55:50;;;;;;;6.57;1.00;;;11.50;99.90;;;;;;4971177;28;20048;-46
2023/10/28 04:58:15;;;;;;;5.18;1.50;;;11.40;99.90;;;;;;4973294;28;20065;-50
2023/10/28 05:00:41;;;;;;;3.22;1.02;;;11.40;99.90;;;;;;4973348;28;20062;-50
2023/10/28 05:03:07;;;;;;;3.13;1.10;;;11.40;99.90;;;;;;4973290;28;20031;-47
2023/10/28 05:05:33;;;;;;;3.67;1.15;;;11.30;99.90;;;;;;4973339;28;20398;-46
2023/10/28 05:07:58;;;;;;;1.67;1.00;;;11.40;99.90;;;;;;4972878;28;20037;-49
2023/10/28 05:10:24;;;;;;;4.22;1.00;;;11.30;99.90;;;;;;4973320;28;20392;-52
2023/10/28 05:12:49;;;;;;;4.97;1.33;;;11.30;99.90;;;;;;4973286;28;20474;-47
2023/10/28 05:15:15;;;;;;;1.58;0.80;;;11.30;99.90;;;;;;4972855;28;20022;-52
2023/10/28 05:17:41;;;;;;;2.92;1.65;;;11.30;99.90;;;;;;4973167;28;20057;-52
2023/10/28 05:20:08;;;;;;;4.43;1.30;;;11.30;99.90;;;;;;4972884;28;20509;-48
2023/10/28 05:22:38;;;;;;;5.43;1.02;;;11.30;99.90;;;;;;4973018;28;20034;-48
2023/10/28 05:25:07;;;;;;;6.97;2.10;;;11.40;99.90;;;;;;4973006;28;20019;-51
2023/10/28 05:27:33;;;;;;;5.65;1.45;;;11.40;99.90;;;;;;4972960;28;20033;-51
2023/10/28 05:29:59;;;;;;;7.13;1.92;;;11.40;99.90;;;;;;4972612;28;20022;-49
2023/10/28 05:32:25;;;;;;;5.15;1.83;;;11.40;99.90;;;;;;4972945;28;20106;-46
2023/10/28 05:34:50;;;;;;;1.88;1.30;;;11.50;99.90;;;;;;4972733;28;20027;-47
2023/10/28 05:37:16;;;;;;;4.47;1.35;;;11.50;99.90;;;;;;4972925;28;20543;-44
2023/10/28 05:39:42;;;;;;;5.72;1.50;;;11.50;99.90;;;;;;4971453;28;20022;-48
2023/10/28 05:42:08;;;;;;;7.57;1.33;;;11.50;99.90;;;;;;4973098;28;20034;-46
2023/10/28 05:44:35;;;;;;;4.72;1.48;;;11.50;99.90;;;;;;4972860;28;20264;-47
2023/10/28 05:47:01;;;;;;;3.22;1.73;;;11.50;99.90;;;;;;4972984;28;20118;-48
2023/10/28 05:49:26;;;;;;;3.90;1.40;;;11.50;99.90;;;;;;4972585;28;20110;-46
2023/10/28 05:51:52;;;;;;;5.03;1.42;;;11.50;99.90;;;;;;4972731;28;20070;-49
2023/10/28 05:54:18;;;;;;;2.08;1.35;;;11.50;99.90;;;;;;4972730;28;20092;-50
2023/10/28 05:56:43;;;;;;;4.38;1.30;;;11.50;99.90;;;;;;4972913;28;20019;-49
2023/10/28 05:59:09;;;;;;;6.28;2.10;;;11.50;99.90;;;;;;4972751;28;20106;-46
2023/10/28 06:01:35;;;;;;;8.55;1.35;;;11.50;99.90;;;;;;4972868;28;20034;-49
2023/10/28 06:04:01;;;;;;;6.22;1.88;;;11.50;99.90;;;;;;4972335;28;20038;-46
2023/10/28 06:06:27;;;;;;;4.85;1.60;;;11.60;99.90;;;;;;4972054;28;20027;-46
2023/10/28 06:08:53;;;;;;;7.07;2.60;;;11.50;99.90;;;;;;4971177;28;20117;-47
2023/10/28 06:11:19;;;;;;;4.65;1.70;;;11.50;99.90;;;;;;4972201;28;20074;-49
2023/10/28 06:13:45;;;;;;;6.20;2.05;;;11.50;99.90;;;;;;4972486;28;20023;-50
2023/10/28 06:16:10;;;;;;;6.68;1.63;;;11.50;99.90;;;;;;4972286;28;20058;-47
2023/10/28 06:18:37;;;;;;;7.32;3.20;;;11.50;99.90;;;;;;4972151;28;20106;-50
2023/10/28 06:21:04;;;;;;;3.75;1.33;;;11.50;99.90;;;;;;4970915;28;20030;-45
2023/10/28 06:23:29;;;;;;;5.47;1.83;;;11.50;99.90;;;;;;4972136;28;20027;-50
2023/10/28 06:25:55;;;;;;;5.53;1.85;;;11.50;99.90;;;;;;4971820;28;20383;-49
2023/10/28 06:28:21;;;;;;;5.93;1.85;;;11.50;99.90;;;;;;4972072;28;20389;-49
2023/10/28 06:30:48;;;;;;;5.95;1.38;;;11.50;99.90;;;;;;4972028;28;20456;-48
2023/10/28 06:33:13;;;;;;;9.57;2.33;;;11.50;99.90;;;;;;4971979;28;20084;-48
2023/10/28 06:35:39;;;;;;;6.63;1.40;;;11.50;99.90;;;;;;4971934;28;20297;-48
2023/10/28 06:38:06;;;;;;;5.93;1.40;;;11.50;99.90;;;;;;4971738;28;20030;-47
2023/10/28 06:40:32;;;;;;;8.43;1.90;;;11.50;99.90;;;;;;4971915;28;20035;-49
2023/10/28 06:42:57;;;;;;;10.43;1.92;;;11.50;99.90;;;;;;4970581;28;20037;-47
2023/10/28 06:45:23;;;;;;;8.77;2.38;;;11.50;99.90;;;;;;4970590;28;20069;-47
2023/10/28 06:47:50;;;;;;;7.53;1.85;;;11.60;99.90;;;;;;4969742;28;20031;-49
2023/10/28 06:50:19;;;;;;;4.50;1.80;;;11.60;99.90;;;;;;4971528;28;20457;-48
2023/10/28 06:52:45;;;;;;;7.63;1.48;;;11.60;99.90;;;;;;4969978;28;20077;-47
2023/10/28 06:55:12;;;;;;;5.13;1.83;;;11.70;99.90;;;;;;4952395;29;20081;-46
2023/10/28 06:57:38;;;;;;;9.63;1.95;;;11.70;99.90;;;;;;4952565;29;20516;-47
2023/10/28 07:00:05;;;;;;;3.50;1.33;;;11.70;99.90;;;;;;4952657;28;20154;-47
2023/10/28 07:02:32;;;;;;;7.72;2.15;;;11.80;99.90;;;;;;4968065;28;20050;-47
2023/10/28 07:04:58;;;;;;;6.35;1.50;;;11.80;99.90;;;;;;4971146;28;20023;-48
2023/10/28 07:07:23;;;;;;;8.50;2.05;;;11.80;99.90;;;;;;4971620;28;20084;-51
2023/10/28 07:09:49;;;;;;;8.18;1.80;;;11.80;99.90;;;;;;4970899;28;20031;-48
2023/10/28 07:12:14;;;;;;;7.53;1.65;;;11.90;99.90;;;;;;4971605;28;20030;-52
2023/10/28 07:14:40;;;;;;;5.47;2.05;;;11.90;99.90;;;;;;4971211;28;20490;-50
2023/10/28 07:17:06;;;;;;;3.95;1.83;;;11.90;99.90;;;;;;4971554;28;20056;-48
2023/10/28 07:19:31;;;;;;;9.38;1.90;;;11.90;99.90;;;;;;4970952;28;20068;-51
2023/10/28 07:21:57;;;;;;;4.68;1.60;;;12.00;99.90;;;;;;4971132;28;20409;-48
2023/10/28 07:24:22;;;;;;;7.63;1.55;;;11.90;99.90;;;;;;4971285;28;20027;-47
2023/10/28 07:26:48;;;;;;;4.00;1.63;;;12.00;99.90;;;;;;4971192;28;20027;-48
2023/10/28 07:29:13;;;;;;;6.28;1.58;;;12.00;99.90;;;;;;4970903;28;20034;-52
2023/10/28 07:31:39;;;;;;;10.05;2.13;;;12.00;99.90;;;;;;4971043;28;20031;-47
2023/10/28 07:34:07;;;;;;;8.05;1.92;;;12.00;99.90;;;;;;4971084;28;20482;-50
2023/10/28 07:36:33;;;;;;;8.02;1.63;;;12.10;99.90;;;;;;4971214;28;20053;-46
2023/10/28 07:39:01;;;;;;;2.78;1.58;;;12.10;99.90;;;;;;4969969;28;20027;-49
2023/10/28 07:41:28;;;;;;;7.63;2.60;;;12.10;99.90;;;;;;4970806;28;20418;-46
2023/10/28 07:43:53;;;;;;;4.78;1.73;;;12.10;99.90;;;;;;4970206;28;20517;-50
2023/10/28 07:46:19;;;;;;;6.85;2.70;;;12.10;99.90;;;;;;4970010;28;20048;-49
2023/10/28 07:48:45;;;;;;;8.23;2.70;;;12.10;99.90;;;;;;4970506;28;20027;-47
2023/10/28 07:51:13;;;;;;;10.30;1.50;;;12.20;99.90;;;;;;4969819;28;20416;-47
2023/10/28 07:53:39;;;;;;;6.03;3.10;;;12.20;99.90;;;;;;4970793;28;20051;-47
2023/10/28 07:56:04;;;;;;;4.75;1.77;;;12.20;99.90;;;;;;4970663;28;20131;-46
2023/10/28 07:58:30;;;;;;;12.20;1.90;;;12.20;99.90;;;;;;4968846;28;20314;-46
2023/10/28 08:00:55;;;;;;;3.40;1.88;;;12.30;99.90;;;;;;4968126;28;20027;-46
2023/10/28 08:03:21;;;;;;;7.50;1.77;;;12.20;99.90;;;;;;4970651;28;20030;-48
2023/10/28 08:05:46;;;;;;;5.00;1.48;;;12.20;99.90;;;;;;4971087;28;20038;-48
2023/10/28 08:08:12;;;;;;;7.07;2.55;;;12.30;99.90;;;;;;4968897;28;20039;-51
2023/10/28 08:10:40;;;;;;;3.75;1.50;;;12.30;99.90;;;;;;4968430;28;20065;-51
2023/10/28 08:13:06;;;;;;;6.45;1.27;;;12.30;99.90;;;;;;4959656;28;20049;-50
2023/10/28 08:15:31;;;;;;;6.68;1.60;;;12.40;99.90;;;;;;4970433;28;20031;-50
2023/10/28 08:17:57;;;;;;;1.75;1.45;;;12.30;99.90;;;;;;4970223;28;20456;-48
2023/10/28 08:20:23;;;;;;;8.52;1.63;;;12.30;99.90;;;;;;4970717;28;20439;-49
2023/10/28 08:22:48;;;;;;;2.88;1.35;;;12.30;99.90;;;;;;4970474;28;20390;-52
2023/10/28 08:25:17;;;;;;;6.47;1.33;;;12.40;99.90;;;;;;4970688;28;20490;-49
2023/10/28 08:27:44;;;;;;;2.78;1.48;;;12.40;99.90;;;;;;4969875;28;20042;-48
2023/10/28 08:30:15;;;;;;;4.35;1.58;;;12.50;99.90;;;;;;4969931;28;20482;-47
2023/10/28 08:32:41;;;;;;;5.75;1.40;;;12.50;99.90;;;;;;4970297;28;20027;-49
2023/10/28 08:35:09;;;;;;;4.00;2.17;;;12.50;99.90;;;;;;4970370;28;20034;-47
2023/10/28 08:37:34;;;;;;;4.72;1.30;;;12.50;99.90;;;;;;4970645;28;20096;-50
2023/10/28 08:40:00;;;;;;;8.40;1.60;;;12.50;99.90;;;;;;4970130;28;20051;-50
2023/10/28 08:42:25;;;;;;;3.08;1.50;;;12.50;99.90;;;;;;4968989;28;20035;-51
2023/10/28 08:44:52;;;;;;;6.13;1.30;;;12.50;99.90;;;;;;4970033;28;20600;-48
2023/10/28 08:47:21;;;;;;;4.80;1.30;;;12.60;99.90;;;;;;4974810;28;20490;-48
2023/10/28 08:49:48;;;;;;;2.83;1.48;;;12.70;99.90;;;;;;4968725;28;20042;-48
2023/10/28 08:52:18;;;;;;;4.45;1.10;;;12.80;99.90;;;;;;4969916;28;20300;-48
2023/10/28 08:54:44;;;;;;;4.07;1.73;;;13.00;99.90;;;;;;4969794;28;20030;-48
2023/10/28 08:57:11;;;;;;;4.35;1.70;;;13.10;99.90;;;;;;4951023;28;20069;-47
2023/10/28 08:59:37;;;;;;;3.95;2.05;;;13.20;99.90;;;;;;4950245;29;20524;-48
2023/10/28 09:02:08;;;;;;;4.07;1.55;;;13.20;99.90;;;;;;4950392;28;20115;-48
2023/10/28 09:04:34;;;;;;;10.52;1.70;;;13.10;99.90;;;;;;4962135;28;20039;-50
2023/10/28 09:07:01;;;;;;;5.20;1.50;;;13.10;99.90;;;;;;4969696;28;20026;-46
2023/10/28 09:09:27;;;;;;;10.65;1.75;;;13.10;99.90;;;;;;4969362;28;20046;-49
2023/10/28 09:11:57;;;;;;;5.53;1.30;;;13.10;99.90;;;;;;4968451;28;20104;-50
2023/10/28 09:14:23;;;;;;;5.72;1.83;;;13.10;99.90;;;;;;4969636;28;20038;-48
2023/10/28 09:16:49;;;;;;;6.53;1.55;;;13.10;99.90;;;;;;4970087;28;20027;-50
2023/10/28 09:19:20;;;;;;;4.22;1.67;;;13.10;99.90;;;;;;4969531;28;20042;-47
2023/10/28 09:21:48;;;;;;;8.63;2.20;;;13.00;99.90;;;;;;4969561;28;20035;-50
2023/10/28 09:24:14;;;;;;;6.28;1.73;;;12.90;99.90;;;;;;4969394;28;20106;-48
2023/10/28 09:26:40;;;;;;;4.38;1.50;;;12.90;99.90;;;;;;4969378;28;20027;-47
2023/10/28 09:29:06;;;;;;;7.20;1.63;;;12.90;99.90;;;;;;4967244;28;20034;-48
2023/10/28 09:31:32;;;;;;;5.15;1.60;;;13.00;99.90;;;;;;4969479;28;20483;-52
2023/10/28 09:33:59;;;;;;;4.10;1.92;;;13.00;99.90;;;;;;4969611;28;20116;-49
2023/10/28 09:36:25;;;;;;;7.82;2.30;;;13.20;99.90;;;;;;4968188;28;20023;-47
2023/10/28 09:38:54;;;;;;;3.75;1.30;;;13.70;99.90;;;;;;4969322;28;20505;-48
2023/10/28 09:41:20;;;;;;;6.18;2.15;;;14.10;99.90;;;;;;4969150;28;20073;-49
2023/10/28 09:43:46;;;;;;;6.93;1.35;;;14.30;99.90;;;;;;4972122;28;20058;-49
2023/10/28 09:46:18;;;;;;;6.05;1.90;;;14.30;99.90;;;;;;4972293;28;20058;-48
2023/10/28 09:48:48;;;;;;;7.13;1.90;;;14.20;99.90;;;;;;4972421;28;20061;-53
2023/10/28 09:51:20;;;;;;;6.80;1.80;;;14.10;99.90;;;;;;4972220;28;20452;-52
2023/10/28 09:53:55;;;;;;;34.83;20.90;;;14.00;99.90;;;;;;4971548;28;20035;-50
2023/10/28 09:56:23;;;;;;;16.42;8.52;;;13.90;99.90;;;;;;4972611;28;20023;-50
2023/10/28 09:59:00;;;;;;;44.40;26.05;;;13.90;99.90;;;;;;4972523;28;20046;-48
2023/10/28 10:01:34;;;;;;;7.03;1.95;;;13.90;99.90;;;;;;4972578;28;20051;-51
2023/10/28 10:04:25;;;;;;;5.88;1.50;;;14.00;99.90;;;;;;4992568;28;20484;-48
2023/10/28 10:06:51;;;;;;;8.50;1.40;;;14.00;99.90;;;;;;5047459;28;20123;-46
2023/10/28 10:09:18;;;;;;;6.93;3.22;;;14.00;99.90;;;;;;5052726;28;20019;-45
2023/10/28 10:11:44;;;;;;;3.20;1.50;;;14.00;99.90;;;;;;4969465;28;20027;-49
2023/10/28 10:14:11;;;;;;;5.57;1.58;;;14.00;99.90;;;;;;4969705;28;20045;-48
2023/10/28 10:16:42;;;;;;;8.45;1.80;;;14.00;99.90;;;;;;4969244;28;20057;-49
2023/10/28 10:19:12;;;;;;;10.32;2.75;;;14.10;99.90;;;;;;4971420;28;20026;-45
2023/10/28 10:21:38;;;;;;;6.45;2.08;;;14.20;99.90;;;;;;4972293;28;20460;-44
2023/10/28 10:24:04;;;;;;;10.40;1.67;;;14.20;99.90;;;;;;4970707;28;20518;-47
2023/10/28 10:26:32;;;;;;;8.27;1.70;;;14.40;99.90;;;;;;4972129;28;20038;-48
2023/10/28 10:28:59;;;;;;;11.98;3.60;;;14.60;99.90;;;;;;4970943;28;20059;-43
2023/10/28 10:31:33;;;;;;;7.07;1.60;;;14.90;99.90;;;;;;4971624;28;20538;-45
2023/10/28 10:34:01;;;;;;;8.13;1.95;;;15.10;99.90;;;;;;4972143;28;20367;-49
2023/10/28 10:36:28;;;;;;;5.70;1.80;;;15.10;99.90;;;;;;4970701;28;20022;-50
2023/10/28 10:38:54;;;;;;;6.65;3.22;;;15.10;99.90;;;;;;4970796;28;20452;-44
2023/10/28 10:41:27;;;;;;;10.00;2.33;;;15.00;99.90;;;;;;4972114;28;20047;-46
2023/10/28 10:43:53;;;;;;;9.10;2.15;;;14.90;99.90;;;;;;4971995;28;20584;-49
2023/10/28 10:46:19;;;;;;;8.13;1.70;;;14.80;99.90;;;;;;4971878;28;20111;-49
2023/10/28 10:48:46;;;;;;;3.70;1.48;;;14.70;99.90;;;;;;4971013;28;20031;-47
2023/10/28 10:51:15;;;;;;;10.32;1.80;;;14.70;99.90;;;;;;4971153;28;20084;-48
2023/10/28 10:53:44;;;;;;;6.68;2.42;;;14.70;99.90;;;;;;4971500;28;20460;-49
2023/10/28 10:56:22;;;;;;;7.45;1.90;;;14.60;99.90;;;;;;4991481;22;20126;-46
2023/10/28 10:58:47;;;;;;;10.65;2.33;;;14.50;99.90;;;;;;4973613;28;20504;-47
2023/10/28 11:01:13;;;;;;;10.55;2.38;;;14.60;99.90;;;;;;4973328;28;20116;-50
2023/10/28 11:03:40;;;;;;;13.93;2.00;;;14.50;99.90;;;;;;4990292;28;20031;-47
2023/10/28 11:06:06;;;;;;;11.20;3.03;;;14.50;99.90;;;;;;4972306;28;20034;-50
2023/10/28 11:08:31;;;;;;;11.25;2.63;;;14.50;99.90;;;;;;4978802;28;20045;-50
2023/10/28 11:10:57;;;;;;;6.10;2.08;;;14.50;99.90;;;;;;5072891;28;20435;-44
2023/10/28 11:13:23;;;;;;;5.55;2.05;;;14.60;99.90;;;;;;5050260;28;20019;-45
2023/10/28 11:15:49;;;;;;;6.20;2.03;;;14.60;99.90;;;;;;4982875;28;20030;-46
2023/10/28 11:18:15;;;;;;;14.18;2.83;;;14.60;99.90;;;;;;4978243;28;20037;-48
2023/10/28 11:20:42;;;;;;;12.38;2.17;;;14.50;99.90;;;;;;4970481;28;20054;-45
2023/10/28 11:23:08;;;;;;;9.70;2.30;;;14.60;99.90;;;;;;4971135;28;20315;-48
2023/10/28 11:25:34;;;;;;;13.70;3.97;;;14.50;99.90;;;;;;4970791;28;20034;-45
2023/10/28 11:28:07;;;;;;;10.45;1.77;;;14.40;99.90;;;;;;4970695;28;20473;-44
2023/10/28 11:30:33;;;;;;;15.27;3.67;;;14.40;99.90;;;;;;4970818;28;20027;-49
2023/10/28 11:33:01;;;;;;;6.78;2.25;;;14.30;99.90;;;;;;4970402;28;20425;-50
2023/10/28 11:35:29;;;;;;;10.30;3.05;;;14.30;99.90;;;;;;4970617;28;20023;-52
2023/10/28 11:37:55;;;;;;;3.65;1.75;;;14.20;99.90;;;;;;4970249;28;20037;-47
2023/10/28 11:40:22;;;;;;;6.10;1.75;;;14.20;99.90;;;;;;4953651;28;20023;-47
2023/10/28 11:42:48;;;;;;;5.95;2.00;;;14.20;99.90;;;;;;4970971;28;20148;-50
2023/10/28 11:45:15;;;;;;;9.93;2.10;;;14.20;99.90;;;;;;4971834;28;20023;-44
2023/10/28 11:47:41;;;;;;;12.15;2.22;;;14.10;99.90;;;;;;4970887;28;20140;-51
2023/10/28 11:50:07;;;;;;;11.52;2.13;;;14.00;99.90;;;;;;4970420;28;20498;-51
2023/10/28 11:52:33;;;;;;;5.93;2.00;;;14.10;99.90;;;;;;4970685;28;20494;-49
2023/10/28 11:55:04;;;;;;;9.95;1.83;;;14.10;99.90;;;;;;4970192;28;20038;-48
2023/10/28 11:57:31;;;;;;;7.53;2.08;;;14.10;99.90;;;;;;4970434;28;20041;-47
2023/10/28 11:59:56;;;;;;;5.72;1.73;;;14.10;99.90;;;;;;4970206;28;20498;-48
2023/10/28 12:02:22;;;;;;;9.20;1.92;;;14.10;99.90;;;;;;4970732;28;20042;-48
2023/10/28 12:04:47;;;;;;;7.03;1.65;;;14.10;99.90;;;;;;4953024;28;20039;-50
2023/10/28 12:07:13;;;;;;;12.73;1.77;;;14.10;99.90;;;;;;4969809;28;20405;-46
2023/10/28 12:09:39;;;;;;;16.98;2.42;;;14.10;99.90;;;;;;4970303;28;20054;-47
2023/10/28 12:12:05;;;;;;;6.30;1.67;;;14.10;99.90;;;;;;4953031;28;20370;-47
2023/10/28 12:14:30;;;;;;;9.93;1.80;;;14.10;99.90;;;;;;4977665;28;20083;-46
2023/10/28 12:16:56;;;;;;;13.43;2.67;;;14.10;99.90;;;;;;4971875;28;20477;-48
2023/10/28 12:19:22;;;;;;;8.13;2.47;;;14.10;99.90;;;;;;4978479;28;20111;-48
2023/10/28 12:21:47;;;;;;;13.73;5.78;;;14.10;99.90;;;;;;4969261;28;20195;-48
2023/10/28 12:24:13;;;;;;;13.65;3.63;;;14.00;99.90;;;;;;4969070;28;20029;-51
2023/10/28 12:26:38;;;;;;;36.13;17.42;;;14.00;99.90;;;;;;4978083;28;20030;-51
2023/10/28 12:29:04;;;;;;;14.60;2.47;;;14.00;99.90;;;;;;4989133;28;20075;-48
2023/10/28 12:31:32;;;;;;;15.45;2.60;;;14.00;99.90;;;;;;4988927;28;20025;-47
2023/10/28 12:33:57;;;;;;;10.68;2.58;;;14.00;99.90;;;;;;4980334;28;20509;-44
2023/10/28 12:36:23;;;;;;;9.25;2.42;;;14.00;99.90;;;;;;4969542;28;20031;-50
2023/10/28 12:38:48;;;;;;;7.20;2.45;;;13.90;99.90;;;;;;4969762;28;20041;-49
2023/10/28 12:41:14;;;;;;;11.45;2.50;;;13.90;99.90;;;;;;4969820;28;20027;-50